Airfield :
LOGIN :

Register | Disclaimer

   EN    FR    IT 

 










Legend :    VFR   Marginal VFR   IFR   Intensive IFR   Very Intensive IFR
Visi :
Ceiling :
>= 8 km
>= 3000ft
5 to 8 km
1000 to 3000 ft
1500m to 5 km
500 to 1000 ft
800 to 1500m
200 to 500 ft
< 800m
< 200 ft
Symbols :   Thunderstorms  Fog  Heavy snow  Heavy precipitations  Wind > 20 kt
SIGMETs :     Misc.  Thunderstorms  Icing  Turbulence  Mountain Waves  Volcanic Ashes







- Airport Elevation : 124 ft
- IATA code : NHT
- Download approach charts


EGWU - RAF Northolt

CURRENT METAR :
  • 201550Z 05007KT 6000 -DZ SCT006 BKN007 04/03 Q0999 TEMPO 4000 -DZ

EXPIRED METARs :
  • 201533Z 05007KT 5000 -DZ FEW004 BKN006 04/03 Q0999 YLO1 TEMPO 4000 -DZ YLO1
  • 201450Z 04006KT 2500 DZ BKN004 OVC007 04/04 Q0998 RERA TEMPO 6000 -DZ BKN006
  • 201350Z 08005KT 3700 RA BKN004 OVC007 04/03 Q0998 REDZ YLO2 TEMPO 6000 -DZ BKN006 YLO1

TAF TAF EGWU
Valid from the 20 at 15:00 until the 21 at 09:00 UTC


201331Z 2015/2109 03006KT 9999 -RA SCT005 BKN008
TEMPO 2015/2018 4000 -RADZ
PROB40
TEMPO 2015/2017 2500 RADZ BKN004
TEMPO 2018/2024 6000 -DZ
BECMG 2100/2103 NSW FEW008
PROB30 2102/2107 4000 BR MIFG SCT006
BECMG 2107/2109 7000 -RA BKN007
No reported NOTAMs for that airfield.
2 SIGMETs reported for the London FIR (EGTT) :
 
Severe icing
EGTT SIGMET 07 VALID 201500/201700 EGRR
EGTT LONDON FIR SEV ICE FCST WI N5253 W00238 - N5144 W00303 - N5158 W00356 - N5259 W00349 - N5253 W00238 FL020/070 STNR WKN=
Severe turbulence
EGTT SIGMET 06 VALID 201500/201900 EGRR
EGTT LONDON FIR SEV TURB FCST S OF LINE N5000 W00200 - N5100 W00800 SFC/FL060 MOV S 15KT WKN=



MET'MAP, your aeronautical weather chart ! - Copyright ORBIFLY December 2007 - Disclaimer

ORBIFLY MET'MAP TEAM :

Programming & Development : Alexandra Zaïnal
Concept & Development : Baudouin d'Aumeries
Co-Development & Prog : Marc-Olivier Méhu
Technical & hardware support : Manuel Goepfert

Contact : metmap@orbifly.com




SOURCES & CREDITS :

   NOAA